Terminal Aerodrome Forecast
Issued by NWS Green Bay, WI

Home | Current Version | Previous Version | Text Only | Print | Product List | Glossary On
Versions: 1 2 3 4 5 6 7 8 9 10 11 12 13 14 15 16 17 18 19 20 21 22 23 24 25 26 27 28 29 30 31 32 33 34
000
FTUS43 KGRB 230526 AAA
TAFGRB
TAF AMD
KGRB 230526Z 2305/2406 VRB03KT 1/4SM FG VV001
     FM231300 24003KT 1 1/2SM BR SKC
     FM231400 VRB03KT P6SM SCT250
     FM232100 01005KT P6SM SCT035 BKN100
     FM240300 32007KT P6SM SCT025 BKN080 PROB30 2403/2406 5SM -SHRA
      BR BKN025=

USA.gov is the U.S. government's official web portal to all federal, state and local government web resources and services.